Data for 05/20/2017

Time Sea-Level Adjusted Pressure Absolute Pressure Temperature Relative Humidity Dew Point   
(mb) (inHg) (mb) (inHg) (C) (F) (%) (C) (F)
00:05 1020 30.12 850 25.1 6.3 43.3 51 -3.1 26.5
00:10 1020 30.12 850 25.1 6.1 42.9 52 -3.1 26.3
00:15 1020 30.12 850 25.1 6 42.7 53 -3 26.7
00:20 1020 30.12 850 25.1 5.9 42.6 52 -3.1 26.4
00:25 1020 30.12 850 25.1 5.8 42.5 53 -3 26.6
00:30 1020 30.12 849 25.07 5.8 42.5 55 -2.6 27.4
00:35 1020 30.12 849 25.07 5.7 42.2 56 -2.5 27.5
00:40 1020 30.12 849 25.07 5.6 42 53 -3.1 26.4
00:45 1020 30.12 849 25.07 5.6 42 55 -2.8 27
00:50 1020 30.12 849 25.07 5.6 42.1 56 -2.5 27.5
00:55 1020 30.12 849 25.07 5.4 41.7 59 -2.1 28.3
01:00 1020 30.12 850 25.1 5.4 41.6 58 -2.3 27.9
01:05 1020 30.12 850 25.1 5.2 41.4 60 -2 28.4
01:10 1020 30.12 849 25.07 5.1 41.2 61 -1.7 28.9
01:15 1020 30.12 849 25.07 5.3 41.5 60 -1.8 28.8
01:20 1020 30.12 849 25.07 5.4 41.7 58 -2.2 28.1
01:25 1020 30.12 849 25.07 5.4 41.8 59 -1.9 28.6
01:30 1020 30.12 849 25.07 5.2 41.4 60 -1.9 28.6
01:35 1020 30.12 849 25.07 5.2 41.4 60 -1.9 28.6
01:40 1020 30.12 849 25.07 5.4 41.7 61 -1.6 29.2
01:45 1020 30.12 849 25.07 5.2 41.4 63 -1.3 29.7
01:50 1020 30.12 849 25.07 5 41 63 -1.5 29.2
01:55 1020 30.12 849 25.07 5 40.9 63 -1.5 29.3
02:00 1020 30.12 849 25.07 4.9 40.9 63 -1.5 29.2
02:05 1020 30.12 849 25.07 4.9 40.9 63 -1.5 29.3
02:10 1020 30.12 849 25.07 4.9 40.7 64 -1.4 29.4
02:15 1020 30.12 849 25.07 4.7 40.5 64 -1.4 29.4
02:20 1020 30.12 849 25.07 4.7 40.4 65 -1.4 29.4
02:25 1020 30.12 849 25.07 4.6 40.2 64 -1.6 29.2
02:30 1020 30.12 849 25.07 4.6 40.3 63 -1.7 28.9
02:35 1020 30.12 849 25.07 4.6 40.3 63 -1.8 28.8
02:40 1020 30.12 849 25.07 4.6 40.2 65 -1.5 29.3
02:45 1020 30.12 849 25.07 4.5 40 65 -1.5 29.3
02:50 1020 30.12 849 25.07 4.3 39.8 66 -1.5 29.2
02:55 1020 30.12 849 25.07 4.3 39.7 65 -1.8 28.8
03:00 1020 30.12 849 25.07 4.3 39.7 65 -1.8 28.8
03:05 1020 30.12 849 25.07 4.4 39.9 64 -1.7 28.9
03:10 1020 30.12 849 25.07 4.5 40.2 64 -1.7 29
03:15 1020 30.12 849 25.07 4.6 40.3 64 -1.5 29.2
03:20 1020 30.12 849 25.07 4.7 40.5 64 -1.5 29.3
03:25 1020 30.12 849 25.07 4.7 40.5 64 -1.4 29.5
03:30 1020 30.12 849 25.07 4.8 40.6 64 -1.5 29.3
03:35 1020 30.12 849 25.07 5 40.9 62 -1.6 29
03:40 1020 30.12 849 25.07 5.1 41.1 64 -1.2 29.8
03:45 1020 30.12 849 25.07 4.8 40.7 65 -1.1 30
03:50 1020 30.12 849 25.07 4.6 40.3 67 -0.9 30.4
03:55 1020 30.12 849 25.07 4.4 40 68 -0.9 30.4
04:00 1020 30.12 849 25.07 4.4 39.9 67 -1.3 29.7
04:05 1020 30.12 849 25.07 4.7 40.4 66 -1.1 30.1
04:10 1020 30.12 849 25.07 4.4 39.9 68 -1 30.2
04:15 1020 30.12 849 25.07 4.3 39.7 68 -1.2 29.9
04:20 1020 30.12 849 25.07 4.4 39.8 68 -1.1 30
04:25 1020 30.12 849 25.07 4.3 39.7 68 -1 30.2
04:30 1020 30.12 849 25.07 4.2 39.5 69 -1 30.2
04:35 1020 30.12 850 25.1 4.1 39.4 69 -1.1 30
04:40 1020 30.12 849 25.07 4.2 39.6 69 -1 30.3
04:45 1020 30.12 850 25.1 3.9 39.1 70 -0.9 30.3
04:50 1020 30.12 850 25.1 3.7 38.7 70 -1.2 29.9
04:55 1020 30.12 850 25.1 3.8 38.9 69 -1.4 29.6
05:00 1020 30.12 850 25.1 4.1 39.3 68 -1.2 29.8
05:05 1020 30.12 850 25.1 4.3 39.8 67 -1.2 29.9
05:10 1020 30.12 850 25.1 4.4 40 68 -1 30.3
05:15 1021 30.15 850 25.1 4.5 40 68 -0.9 30.4
05:20 1021 30.15 850 25.1 4.5 40.1 68 -1 30.3
05:25 1020 30.12 850 25.1 4.6 40.3 67 -0.9 30.3
05:30 1020 30.12 850 25.1 4.7 40.4 67 -0.8 30.5
05:35 1020 30.12 850 25.1 4.6 40.2 68 -0.7 30.7
05:40 1021 30.15 850 25.1 4.6 40.3 68 -0.8 30.6
05:45 1021 30.15 850 25.1 4.9 40.8 67 -0.7 30.7
05:50 1021 30.15 850 25.1 5.2 41.3 67 -0.5 31.1
05:55 1021 30.15 850 25.1 5.2 41.3 67 -0.3 31.4
06:00 1021 30.15 850 25.1 5 41 68 -0.5 31.1
06:05 1021 30.15 850 25.1 4.9 40.9 67 -0.7 30.7
06:10 1021 30.15 850 25.1 4.8 40.7 68 -0.6 30.9
06:15 1021 30.15 850 25.1 5 40.9 66 -0.9 30.4
06:20 1021 30.15 850 25.1 5.3 41.5 64 -0.9 30.4
06:25 1021 30.15 850 25.1 5.7 42.3 63 -0.8 30.6
06:30 1021 30.15 850 25.1 6.3 43.3 61 -0.7 30.7
06:35 1021 30.15 850 25.1 6.8 44.2 59 -0.7 30.8
06:40 1021 30.15 850 25.1 7 44.6 59 -0.4 31.2
06:45 1021 30.15 850 25.1 7.5 45.4 57 -0.5 31.1
06:50 1021 30.15 850 25.1 7.6 45.7 57 -0.4 31.3
06:55 1021 30.15 850 25.1 7.9 46.1 55 -0.6 31
07:00 1021 30.15 850 25.1 8.3 47 54 -0.4 31.4
07:05 1021 30.15 850 25.1 8.6 47.5 53 -0.4 31.3
07:10 1021 30.15 850 25.1 9.2 48.6 51 -0.4 31.3
07:15 1021 30.15 850 25.1 9.9 49.9 50 -0 31.9
07:20 1021 30.15 850 25.1 10.2 50.4 50 0.3 32.6
07:25 1021 30.15 850 25.1 10.5 50.8 50 0.6 33
07:30 1021 30.15 850 25.1 11 51.8 49 0.8 33.4
07:35 1021 30.15 850 25.1 11 51.8 50 1.1 34
07:40 1021 30.15 850 25.1 10.8 51.5 50 0.9 33.6
07:45 1021 30.15 850 25.1 10.7 51.2 50 0.8 33.4
07:50 1021 30.15 850 25.1 11.1 52.1 48 0.6 33
07:55 1021 30.15 850 25.1 11.1 52 49 0.7 33.3
08:00 1021 30.15 850 25.1 11.4 52.6 47 0.4 32.8
08:05 1021 30.15 850 25.1 12.2 53.9 45 0.7 33.2
08:10 1021 30.15 850 25.1 12.1 53.9 45 0.5 32.9
08:15 1021 30.15 850 25.1 12.9 55.2 41 -0.1 31.9
08:20 1021 30.15 850 25.1 13.6 56.6 39 0.1 32.1
08:25 1021 30.15 850 25.1 13.9 56.9 38 -0.1 31.8
08:30 1021 30.15 850 25.1 13.2 55.8 39 -0.3 31.5
08:35 1021 30.15 850 25.1 13.4 56 38 -0.6 30.9
08:40 1021 30.15 850 25.1 13.6 56.5 38 -0.3 31.4
08:45 1021 30.15 850 25.1 12.9 55.1 39 -0.6 30.9
08:50 1021 30.15 850 25.1 13.2 55.8 39 -0.5 31.1
08:55 1021 30.15 850 25.1 13.8 56.8 37 -0.4 31.2
09:00 1021 30.15 850 25.1 14.1 57.4 35 -0.9 30.4
09:05 1021 30.15 850 25.1 14.7 58.4 34 -0.8 30.5
09:10 1021 30.15 850 25.1 14.4 57.9 36 -0.5 31.1
09:15 1021 30.15 850 25.1 14.5 58.1 35 -0.9 30.5
09:20 1021 30.15 850 25.1 14.6 58.4 34 -0.8 30.5
09:25 1021 30.15 850 25.1 14.6 58.3 34 -0.9 30.4
09:30 1021 30.15 850 25.1 14.9 58.8 33 -1 30.3
09:35 1021 30.15 850 25.1 15.1 59.2 34 -0.6 31
09:40 1021 30.15 850 25.1 14.8 58.6 37 0.1 32.2
09:45 1021 30.15 850 25.1 14.9 58.7 34 -0.6 31
09:50 1021 30.15 850 25.1 15.4 59.7 34 -0.2 31.6
09:55 1021 30.15 850 25.1 15.4 59.6 33 -0.6 31
10:00 1021 30.15 850 25.1 15.1 59.2 34 -0.7 30.7
10:05 1021 30.15 850 25.1 15.6 60.1 33 -0.4 31.2
10:10 1021 30.15 850 25.1 15.8 60.5 33 -0.2 31.7
10:15 1021 30.15 850 25.1 15.5 60 34 -0.1 31.8
10:20 1021 30.15 850 25.1 15.4 59.6 34 -0.2 31.7
10:25 1021 30.15 850 25.1 15.7 60.2 32 -1 30.2
10:30 1021 30.15 850 25.1 15.9 60.5 33 -0.4 31.3
10:35 1021 30.15 850 25.1 15.9 60.5 32 -0.5 31
10:40 1021 30.15 850 25.1 16.2 61.1 32 -0.3 31.5
10:45 1021 30.15 850 25.1 16 60.7 33 -0.4 31.4
10:50 1021 30.15 850 25.1 16.1 60.9 32 -0.7 30.8
10:55 1021 30.15 850 25.1 16 60.8 33 -0.3 31.4
11:00 1021 30.15 850 25.1 15.4 59.7 34 -0.2 31.6
11:05 1021 30.15 850 25.1 15.8 60.5 32 -0.6 30.9
11:10 1021 30.15 850 25.1 15.7 60.3 33 -0.3 31.5
11:15 1021 30.15 850 25.1 15.8 60.4 33 -0.5 31.2
11:20 1021 30.15 850 25.1 15.9 60.6 30 -1.5 29.2
11:25 1021 30.15 850 25.1 16.2 61.2 31 -0.8 30.6
11:30 1021 30.15 850 25.1 16.1 61 32 -0.6 31
11:35 1021 30.15 850 25.1 15.4 59.7 31 -1.5 29.3
11:40 1021 30.15 850 25.1 16.2 61.2 29 -1.5 29.2
11:45 1021 30.15 850 25.1 15.9 60.6 30 -1.6 29.2
11:50 1020 30.12 850 25.1 15.5 60 32 -0.8 30.5
11:55 1020 30.12 850 25.1 16.4 61.5 30 -0.9 30.4
12:00 1021 30.15 850 25.1 16.7 62.1 29 -1.2 29.8
12:05 1021 30.15 850 25.1 16.8 62.3 29 -1.4 29.5
12:10 1021 30.15 850 25.1 16.8 62.2 30 -0.9 30.4
12:15 1020 30.12 850 25.1 17 62.7 28 -1.5 29.2
12:20 1020 30.12 850 25.1 16 60.7 31 -1.3 29.7
12:25 1020 30.12 850 25.1 16.4 61.5 29 -1.5 29.3
12:30 1020 30.12 850 25.1 16.7 62 27 -2.1 28.3
12:35 1020 30.12 850 25.1 17.6 63.6 26 -2.1 28.2
12:40 1020 30.12 850 25.1 17.4 63.2 28 -1.4 29.4
12:45 1020 30.12 850 25.1 17.5 63.4 29 -0.7 30.8
12:50 1020 30.12 850 25.1 17.4 63.4 28 -1.4 29.6
12:55 1020 30.12 850 25.1 17.8 64.1 26 -1.9 28.6
13:00 1020 30.12 849 25.07 17.5 63.4 28 -1.2 29.8
13:05 1020 30.12 849 25.07 17.1 62.7 28 -1.3 29.7
13:10 1020 30.12 849 25.07 17.5 63.5 27 -1.4 29.4
13:15 1020 30.12 849 25.07 17.5 63.6 28 -1.1 30.1
13:20 1020 30.12 849 25.07 17.4 63.3 28 -1.1 30
13:25 1020 30.12 849 25.07 17.2 63 27 -1.9 28.6
13:30 1020 30.12 849 25.07 17.8 64.1 26 -1.6 29.1
13:35 1020 30.12 849 25.07 17.8 64.1 27 -1.2 29.8
13:40 1020 30.12 849 25.07 18.1 64.5 25 -1.9 28.6
13:45 1020 30.12 849 25.07 17.9 64.2 25 -2.2 28
13:50 1020 30.12 849 25.07 17.4 63.4 26 -2.3 27.9
13:55 1020 30.12 849 25.07 17.6 63.7 25 -2.6 27.3
14:00 1020 30.12 849 25.07 17.7 63.8 28 -1.1 30
14:05 1020 30.12 849 25.07 17.4 63.3 27 -1.8 28.8
14:10 1020 30.12 849 25.07 17.9 64.2 28 -0.8 30.5
14:15 1020 30.12 849 25.07 18.6 65.5 26 -1 30.1
14:20 1020 30.12 849 25.07 18.4 65.1 27 -0.6 30.9
14:25 1020 30.12 849 25.07 17.1 62.7 29 -0.8 30.6
14:30 1020 30.12 849 25.07 17.2 62.9 27 -1.8 28.8
14:35 1020 30.12 849 25.07 17.5 63.4 29 -0.5 31
14:40 1020 30.12 849 25.07 17.3 63.2 28 -1.3 29.6
14:45 1020 30.12 849 25.07 17.2 62.9 30 -0.6 30.9
14:50 1020 30.12 849 25.07 17 62.6 33 0.9 33.7
14:55 1020 30.12 849 25.07 16.2 61.2 39 2.3 36.1
15:00 1020 30.12 849 25.07 15.4 59.6 41 2.1 35.8
15:05 1020 30.12 850 25.1 14.6 58.3 43 2.3 36.2
15:10 1020 30.12 850 25.1 14.4 58 43 2.2 35.9
15:15 1020 30.12 850 25.1 14.4 57.8 42 1.8 35.3
15:20 1020 30.12 850 25.1 14.5 58.1 43 2 35.6
15:25 1020 30.12 850 25.1 14.5 58.2 42 1.8 35.3
15:30 1020 30.12 850 25.1 14.7 58.4 41 1.5 34.8
15:35 1021 30.15 850 25.1 14.4 57.9 40 1.1 34
15:40 1021 30.15 850 25.1 14.1 57.3 40 0.6 33.1
15:45 1021 30.15 850 25.1 14.2 57.6 43 2 35.6
15:50 1021 30.15 850 25.1 13.8 56.8 49 3.5 38.2
15:55 1021 30.15 850 25.1 12.5 54.5 53 3.2 37.8
16:00 1021 30.15 850 25.1 12 53.6 55 3.2 37.7
16:05 1021 30.15 850 25.1 11.5 52.7 57 3.4 38.1
16:10 1021 30.15 850 25.1 11.2 52.1 56 2.9 37.2
16:15 1021 30.15 850 25.1 10.8 51.5 57 2.7 36.9
16:20 1021 30.15 850 25.1 10.4 50.7 61 3.1 37.7
16:25 1021 30.15 851 25.13 9.3 48.7 70 4.2 39.5
16:30 1021 30.15 851 25.13 7.8 46.1 78 4.1 39.5
16:35 1022 30.18 851 25.13 7.2 45 77 3.5 38.2
16:40 1021 30.15 851 25.13 7.1 44.8 79 3.7 38.7
16:45 1022 30.18 851 25.13 7 44.6 79 3.6 38.4
16:50 1022 30.18 851 25.13 7.2 45 79 3.7 38.7
16:55 1022 30.18 851 25.13 7.3 45.2 79 4 39.2
17:00 1022 30.18 851 25.13 7.4 45.4 80 4.3 39.7
17:05 1022 30.18 851 25.13 7.4 45.4 77 3.7 38.7
17:10 1022 30.18 851 25.13 7.8 46 76 3.9 39.1
17:15 1022 30.18 851 25.13 8 46.4 78 4.3 39.8
17:20 1022 30.18 851 25.13 8.1 46.5 77 4.4 39.8
17:25 1022 30.18 851 25.13 8.2 46.7 79 4.7 40.4
17:30 1022 30.18 851 25.13 8.2 46.8 80 5.1 41.1
17:35 1022 30.18 851 25.13 8.1 46.5 80 4.9 40.8
17:40 1021 30.15 851 25.13 7.9 46.3 76 3.9 39
17:45 1021 30.15 851 25.13 8.1 46.7 71 3.3 37.9
17:50 1021 30.15 851 25.13 8.2 46.7 71 3.2 37.7
17:55 1021 30.15 851 25.13 8.2 46.7 71 3.3 37.9
18:00 1021 30.15 851 25.13 8.4 47.1 71 3.5 38.3
18:05 1022 30.18 851 25.13 8.5 47.2 73 3.9 39.1
18:10 1022 30.18 851 25.13 8.4 47.2 77 4.6 40.4
18:15 1022 30.18 851 25.13 8.4 47.1 75 4.3 39.7
18:20 1022 30.18 851 25.13 8.5 47.3 73 4 39.1
18:25 1022 30.18 851 25.13 8.7 47.6 71 3.7 38.6
18:30 1022 30.18 851 25.13 8.8 47.9 68 3.2 37.8
18:35 1022 30.18 851 25.13 8.9 48 70 3.8 38.9
18:40 1022 30.18 851 25.13 9 48.2 71 4 39.2
18:45 1022 30.18 851 25.13 8.9 47.9 71 3.9 39
18:50 1022 30.18 851 25.13 8.9 47.9 72 4.1 39.4
18:55 1022 30.18 851 25.13 8.9 48.1 73 4.4 40
19:00 1022 30.18 851 25.13 8.9 48 71 4 39.3
19:05 1022 30.18 851 25.13 8.9 48 75 4.8 40.6
19:10 1022 30.18 851 25.13 8.6 47.6 78 5.1 41.1
19:15 1022 30.18 851 25.13 8.3 47 77 4.5 40.1
19:20 1022 30.18 851 25.13 8.4 47 74 4.1 39.3
19:25 1022 30.18 851 25.13 8.4 47.2 76 4.5 40
19:30 1022 30.18 851 25.13 8.4 47.2 75 4.3 39.8
19:35 1022 30.18 852 25.16 8.5 47.2 76 4.6 40.2
19:40 1022 30.18 852 25.16 8.4 47.1 76 4.4 39.8
19:45 1022 30.18 852 25.16 8.5 47.3 72 3.7 38.6
19:50 1023 30.21 852 25.16 8.7 47.6 71 3.8 38.8
19:55 1023 30.21 852 25.16 8.6 47.5 70 3.5 38.3
20:00 1023 30.21 852 25.16 8.6 47.5 72 3.9 39
20:05 1023 30.21 852 25.16 8.3 47 74 3.9 39.1
20:10 1023 30.21 852 25.16 8 46.4 75 3.8 38.9
20:15 1023 30.21 852 25.16 7.9 46.2 74 3.5 38.3
20:20 1023 30.21 852 25.16 7.8 46.1 75 3.6 38.5
20:25 1023 30.21 852 25.16 7.7 45.9 73 3.3 37.9
20:30 1023 30.21 852 25.16 7.7 45.9 74 3.4 38.1
20:35 1023 30.21 852 25.16 7.7 45.8 73 3.2 37.8
20:40 1023 30.21 852 25.16 7.8 46 72 3.1 37.5
20:45 1023 30.21 852 25.16 7.7 45.9 73 3.2 37.8
20:50 1023 30.21 852 25.16 7.5 45.6 74 3.1 37.6
20:55 1023 30.21 852 25.16 7.5 45.4 73 2.9 37.3
21:00 1023 30.21 852 25.16 7.5 45.5 73 2.9 37.3
21:05 1023 30.21 852 25.16 7.4 45.3 73 3 37.3
21:10 1023 30.21 852 25.16 7.3 45.2 74 2.9 37.3
21:15 1023 30.21 852 25.16 7.2 45 74 2.9 37.2
21:20 1023 30.21 852 25.16 7.1 44.8 75 2.9 37.3
21:25 1023 30.21 852 25.16 7 44.6 75 2.9 37.3
21:30 1023 30.21 852 25.16 6.9 44.5 76 2.9 37.3
21:35 1023 30.21 852 25.16 6.8 44.3 76 2.9 37.3
21:40 1023 30.21 853 25.19 6.9 44.3 76 3 37.4
21:45 1023 30.21 853 25.19 6.8 44.3 75 2.8 37
21:50 1023 30.21 853 25.19 6.9 44.5 76 2.9 37.3
21:55 1023 30.21 853 25.19 6.8 44.3 76 2.9 37.3
22:00 1023 30.21 853 25.19 6.8 44.2 77 3 37.4
22:05 1023 30.21 853 25.19 6.7 44.1 77 3.1 37.5
22:10 1023 30.21 853 25.19 6.6 43.9 78 3 37.4
22:15 1023 30.21 853 25.19 6.6 43.9 78 3 37.4
22:20 1023 30.21 853 25.19 6.5 43.8 78 3 37.3
22:25 1023 30.21 853 25.19 6.5 43.6 79 3.1 37.5
22:30 1024 30.24 853 25.19 6.3 43.4 79 2.9 37.2
22:35 1023 30.21 853 25.19 6.3 43.3 80 3 37.5
22:40 1023 30.21 853 25.19 6.2 43.2 80 3 37.4
22:45 1023 30.21 853 25.19 6.1 43 81 3 37.5
22:50 1023 30.21 853 25.19 6 42.8 80 2.9 37.2
22:55 1023 30.21 853 25.19 6.1 43 80 2.9 37.2
23:00 1023 30.21 853 25.19 6.1 43 80 3 37.3
23:05 1023 30.21 853 25.19 6 42.8 81 3 37.4
23:10 1024 30.24 853 25.19 5.8 42.5 82 3 37.4
23:15 1024 30.24 853 25.19 5.7 42.2 82 2.9 37.2
23:20 1024 30.24 853 25.19 5.7 42.2 82 2.8 37
23:25 1024 30.24 853 25.19 5.7 42.3 81 2.8 37
23:30 1024 30.24 853 25.19 5.7 42.3 81 2.7 36.9
23:35 1024 30.24 853 25.19 5.6 42 82 2.8 37
23:40 1024 30.24 853 25.19 5.4 41.7 82 2.6 36.7
23:45 1024 30.24 853 25.19 5.3 41.6 83 2.7 36.8
23:50 1024 30.24 853 25.19 5.2 41.3 84 2.6 36.7
23:55 1024 30.24 853 25.19 5.1 41.2 83 2.5 36.5
24:00 1024 30.24 853 25.19 5.1 41.1 84 2.6 36.6